createdAt,value
2022-08-20T00:01:09.228Z,23.63
2022-08-20T00:05:56.674Z,25.02
2022-08-20T00:08:24.029Z,27.60
2022-08-20T00:13:15.237Z,25.25
2022-08-20T00:15:45.452Z,34.80
2022-08-20T00:18:12.726Z,23.02
2022-08-20T00:20:46.197Z,33.67
2022-08-20T00:23:13.662Z,26.58
2022-08-20T00:25:41.332Z,31.23
2022-08-20T00:28:08.448Z,33.38
2022-08-20T00:30:36.820Z,30.33
2022-08-20T00:33:07.217Z,33.90
2022-08-20T00:35:36.702Z,35.00
2022-08-20T00:38:04.145Z,31.63
2022-08-20T00:40:37.292Z,28.42
2022-08-20T00:43:08.407Z,28.90
2022-08-20T00:45:35.719Z,35.28
2022-08-20T00:48:05.371Z,26.08
2022-08-20T00:50:37.645Z,26.23
2022-08-20T00:53:07.671Z,29.30
2022-08-20T00:55:35.604Z,28.60
2022-08-20T00:58:09.622Z,26.55
2022-08-20T01:00:40.653Z,24.55
2022-08-20T01:03:09.938Z,35.13
2022-08-20T01:05:38.669Z,27.55
2022-08-20T01:08:06.058Z,32.97
2022-08-20T01:10:40.993Z,28.17
2022-08-20T01:13:11.415Z,30.65
2022-08-20T01:15:43.242Z,31.45
2022-08-20T01:18:15.921Z,27.02
2022-08-20T01:21:04.452Z,37.22
2022-08-20T01:23:39.592Z,28.85
2022-08-20T01:26:17.683Z,36.60
2022-08-20T01:28:47.448Z,30.77
2022-08-20T01:31:17.530Z,31.05
2022-08-20T01:36:06.030Z,34.28
2022-08-20T01:38:33.281Z,31.20
2022-08-20T01:41:18.936Z,33.55
2022-08-20T01:43:57.225Z,27.33
2022-08-20T01:46:29.068Z,27.52
2022-08-20T01:48:58.204Z,23.02
2022-08-20T01:51:29.423Z,22.50
2022-08-20T01:53:59.849Z,32.80
2022-08-20T01:56:30.915Z,38.88
2022-08-20T02:01:46.250Z,23.00
2022-08-20T02:04:15.576Z,24.77
2022-08-20T02:06:56.860Z,25.13
2022-08-20T02:09:34.292Z,23.17
2022-08-20T02:12:02.943Z,22.88
2022-08-20T02:14:30.318Z,26.73
2022-08-20T02:16:58.458Z,20.52
2022-08-20T02:19:37.092Z,23.02
2022-08-20T02:22:27.712Z,19.13
2022-08-20T02:24:54.337Z,26.55
2022-08-20T02:27:23.661Z,22.27
2022-08-20T02:29:52.395Z,26.05
2022-08-20T02:34:45.196Z,28.42
2022-08-20T02:37:14.984Z,26.90
2022-08-20T02:39:41.730Z,23.50
2022-08-20T02:42:09.334Z,20.08
2022-08-20T02:44:36.003Z,23.17
2022-08-20T02:47:02.580Z,26.55
2022-08-20T02:49:30.162Z,25.08
2022-08-20T02:51:56.888Z,32.17
2022-08-20T02:54:23.508Z,27.17
2022-08-20T02:56:51.992Z,30.90
2022-08-20T02:59:19.006Z,27.15
2022-08-20T03:01:48.393Z,31.85
2022-08-20T03:04:26.697Z,38.05
2022-08-20T03:06:53.292Z,31.30
2022-08-20T03:09:19.860Z,31.58
2022-08-20T03:11:46.413Z,31.25
2022-08-20T03:14:13.067Z,30.30
2022-08-20T03:16:39.664Z,42.63
2022-08-20T03:19:06.360Z,32.97
2022-08-20T03:21:33.027Z,29.75
2022-08-20T03:23:59.641Z,38.47
2022-08-20T03:26:26.305Z,40.10
2022-08-20T03:28:52.928Z,37.97
2022-08-20T03:31:20.759Z,43.08
2022-08-20T03:33:52.601Z,39.60
2022-08-20T03:36:27.785Z,54.50
2022-08-20T03:39:04.541Z,44.60
2022-08-20T03:41:32.205Z,40.42
2022-08-20T03:43:59.095Z,44.75
2022-08-20T03:46:25.780Z,44.70
2022-08-20T03:48:59.842Z,45.25
2022-08-20T03:51:30.681Z,46.42
2022-08-20T03:53:58.005Z,46.55
2022-08-20T03:56:25.060Z,44.63
2022-08-20T03:58:52.348Z,39.85
2022-08-20T04:01:45.117Z,39.30
2022-08-20T04:04:05.682Z,39.55
2022-08-20T04:06:38.965Z,42.33
2022-08-20T04:09:07.129Z,37.58
2022-08-20T04:11:37.497Z,39.10
2022-08-20T04:14:04.072Z,36.60
2022-08-20T04:16:33.581Z,38.65
2022-08-20T04:19:02.218Z,42.70
2022-08-20T04:21:33.570Z,35.85
2022-08-20T04:24:02.377Z,37.65
2022-08-20T04:26:29.875Z,43.60
2022-08-20T04:28:56.781Z,36.03
2022-08-20T04:31:33.236Z,37.78
2022-08-20T04:34:02.186Z,38.50
2022-08-20T04:36:28.843Z,37.17
2022-08-20T04:38:55.504Z,40.42
2022-08-20T04:41:24.301Z,39.35
2022-08-20T04:43:55.829Z,41.80
2022-08-20T04:46:25.674Z,36.80
2022-08-20T04:48:52.925Z,49.33
2022-08-20T04:51:23.277Z,33.90
2022-08-20T04:53:53.775Z,38.38
2022-08-20T04:56:28.662Z,56.15
2022-08-20T04:58:59.044Z,37.63
2022-08-20T05:01:26.384Z,49.85
2022-08-20T05:03:54.840Z,34.15
2022-08-20T05:06:24.694Z,42.05
2022-08-20T05:08:51.922Z,36.63
2022-08-20T05:13:50.375Z,43.97
2022-08-20T05:16:18.081Z,48.92
2022-08-20T05:18:45.588Z,109.90
2022-08-20T05:21:20.093Z,107.95
2022-08-20T05:23:47.175Z,86.88
2022-08-20T05:26:16.038Z,81.32
2022-08-20T05:28:50.656Z,37.30
2022-08-20T05:31:32.559Z,37.60
2022-08-20T05:34:09.711Z,40.40
2022-08-20T05:36:50.003Z,30.25
2022-08-20T05:39:19.158Z,32.13
2022-08-20T05:41:45.720Z,33.45
2022-08-20T05:44:15.490Z,33.92
2022-08-20T05:46:44.001Z,28.60
2022-08-20T05:49:13.461Z,24.00
2022-08-20T05:51:40.527Z,27.80
2022-08-20T05:54:27.657Z,27.63
2022-08-20T05:56:54.783Z,25.55
2022-08-20T05:59:24.198Z,21.80
2022-08-20T06:01:52.007Z,23.25
2022-08-20T06:04:24.874Z,28.48
2022-08-20T06:06:53.931Z,25.15
2022-08-20T06:09:31.142Z,27.58
2022-08-20T06:12:00.753Z,19.00
2022-08-20T06:14:27.392Z,24.52
2022-08-20T06:16:57.707Z,18.70
2022-08-20T06:19:27.249Z,24.27
2022-08-20T06:21:59.275Z,20.35
2022-08-20T06:24:26.964Z,22.00
2022-08-20T06:26:58.764Z,20.88
2022-08-20T06:29:25.770Z,16.10
2022-08-20T06:31:52.345Z,19.67
2022-08-20T06:34:19.244Z,16.80
2022-08-20T06:36:46.782Z,26.88
2022-08-20T06:39:14.911Z,19.55
2022-08-20T06:41:42.063Z,18.45
2022-08-20T06:44:08.727Z,18.23
2022-08-20T06:46:36.252Z,21.60
2022-08-20T06:49:04.841Z,21.10
2022-08-20T06:51:31.564Z,25.02
2022-08-20T06:56:17.077Z,19.10
2022-08-20T06:58:43.970Z,24.27
2022-08-20T07:01:12.364Z,22.52
2022-08-20T07:03:42.269Z,21.65
2022-08-20T07:06:21.955Z,21.90
2022-08-20T07:08:48.599Z,15.88
2022-08-20T07:11:15.208Z,24.48
2022-08-20T07:16:07.876Z,17.90
2022-08-20T07:18:34.504Z,20.05
2022-08-20T07:21:01.068Z,15.32
2022-08-20T07:23:33.180Z,20.90
2022-08-20T07:26:00.428Z,17.58
2022-08-20T07:28:32.479Z,19.10
2022-08-20T07:31:20.469Z,21.92
2022-08-20T07:33:50.262Z,18.27
2022-08-20T07:36:18.201Z,18.88
2022-08-20T07:38:50.918Z,21.70
2022-08-20T07:41:18.758Z,18.60
2022-08-20T07:43:46.756Z,24.88
2022-08-20T07:46:17.755Z,17.48
2022-08-20T07:48:49.766Z,22.58
2022-08-20T07:51:19.269Z,21.48
2022-08-20T07:53:47.611Z,19.50
2022-08-20T07:56:17.567Z,18.92
2022-08-20T07:58:49.923Z,25.02
2022-08-20T08:01:26.185Z,22.00
2022-08-20T08:03:53.193Z,25.15
2022-08-20T08:06:28.923Z,24.13
2022-08-20T08:09:11.718Z,17.70
2022-08-20T08:11:47.185Z,19.93
2022-08-20T08:14:16.599Z,23.92
2022-08-20T08:16:45.296Z,18.88
2022-08-20T08:19:14.696Z,21.95
2022-08-20T08:21:41.889Z,18.80
2022-08-20T08:24:08.740Z,24.60
2022-08-20T08:28:48.172Z,24.65
2022-08-20T08:31:15.120Z,20.60
2022-08-20T08:33:42.488Z,18.10
2022-08-20T08:36:12.941Z,27.25
2022-08-20T08:38:44.804Z,20.17
2022-08-20T08:41:18.579Z,16.85
2022-08-20T08:43:53.194Z,17.50
2022-08-20T08:46:26.054Z,19.98
2022-08-20T08:48:56.240Z,17.77
2022-08-20T08:51:37.203Z,17.88
2022-08-20T08:54:07.171Z,19.60
2022-08-20T08:56:35.448Z,20.73
2022-08-20T08:59:05.943Z,21.15
2022-08-20T09:01:55.499Z,21.03
2022-08-20T09:04:31.653Z,29.37
2022-08-20T09:06:59.329Z,24.15
2022-08-20T09:09:32.864Z,18.15
2022-08-20T09:12:15.200Z,19.55
2022-08-20T09:14:41.787Z,16.25
2022-08-20T09:17:08.423Z,15.68
2022-08-20T09:19:35.519Z,15.43
2022-08-20T09:22:13.550Z,17.30
2022-08-20T09:24:41.520Z,20.33
2022-08-20T09:27:08.503Z,20.48
2022-08-20T09:29:35.648Z,23.27
2022-08-20T09:32:10.288Z,19.65
2022-08-20T09:34:48.452Z,19.65
2022-08-20T09:37:15.710Z,16.88
2022-08-20T09:39:42.988Z,17.58
2022-08-20T09:42:19.521Z,16.58
2022-08-20T09:44:46.460Z,22.08
2022-08-20T09:47:13.192Z,16.13
2022-08-20T09:49:40.501Z,16.67
2022-08-20T09:52:09.666Z,20.00
2022-08-20T09:54:39.679Z,15.52
2022-08-20T09:57:14.649Z,20.65
2022-08-20T09:59:41.617Z,17.13
2022-08-20T10:02:08.260Z,16.17
2022-08-20T10:04:34.876Z,16.58
2022-08-20T10:07:01.480Z,17.15
2022-08-20T10:09:27.995Z,15.10
2022-08-20T10:11:54.592Z,13.77
2022-08-20T10:14:21.112Z,14.98
2022-08-20T10:16:55.841Z,17.20
2022-08-20T10:19:26.312Z,12.40
2022-08-20T10:21:53.950Z,13.40
2022-08-20T10:24:21.984Z,15.10
2022-08-20T10:26:49.351Z,17.45
2022-08-20T10:29:16.756Z,12.90
2022-08-20T10:31:43.333Z,13.60
2022-08-20T10:34:09.949Z,12.75
2022-08-20T10:36:36.489Z,17.80
2022-08-20T10:39:03.303Z,13.52
2022-08-20T10:41:36.091Z,16.73
2022-08-20T10:44:05.597Z,17.23
2022-08-20T10:46:32.152Z,14.05
2022-08-20T10:48:58.696Z,11.63
2022-08-20T10:51:32.259Z,11.23
2022-08-20T10:53:59.255Z,10.77
2022-08-20T10:56:25.798Z,13.18
2022-08-20T10:58:52.453Z,13.43
2022-08-20T11:01:32.636Z,14.20
2022-08-20T11:04:00.883Z,13.25
2022-08-20T11:06:27.456Z,10.98
2022-08-20T11:08:54.040Z,14.07
2022-08-20T11:11:23.766Z,16.42
2022-08-20T11:13:50.299Z,13.48
2022-08-20T11:16:16.867Z,11.73
2022-08-20T11:18:47.313Z,15.13
2022-08-20T11:21:15.196Z,9.85
2022-08-20T11:23:41.732Z,10.98
2022-08-20T11:26:08.907Z,16.98
2022-08-20T11:28:35.475Z,9.90
2022-08-20T11:31:02.136Z,15.93
2022-08-20T11:33:29.350Z,15.93
2022-08-20T11:35:56.228Z,12.43
2022-08-20T11:38:22.967Z,12.25
2022-08-20T11:40:49.738Z,13.85
2022-08-20T11:43:17.489Z,13.23
2022-08-20T11:45:50.209Z,10.15
2022-08-20T11:48:17.860Z,13.90
2022-08-20T11:50:45.181Z,16.77
2022-08-20T11:53:11.811Z,16.23
2022-08-20T11:55:38.687Z,11.63
2022-08-20T11:58:05.673Z,12.85
2022-08-20T12:00:34.122Z,10.55
2022-08-20T12:03:02.517Z,10.48
2022-08-20T12:05:32.327Z,12.00
2022-08-20T12:08:01.515Z,12.88
2022-08-20T12:10:29.052Z,9.93
2022-08-20T12:12:56.283Z,12.48
2022-08-20T12:15:24.118Z,21.83
2022-08-20T12:17:50.795Z,10.05
2022-08-20T12:20:17.585Z,14.85
2022-08-20T12:22:44.744Z,13.07
2022-08-20T12:25:12.544Z,15.55
2022-08-20T12:27:40.335Z,14.73
2022-08-20T12:30:12.999Z,14.00
2022-08-20T12:32:40.679Z,14.73
2022-08-20T12:35:08.964Z,14.50
2022-08-20T12:37:35.968Z,11.07
2022-08-20T12:40:07.452Z,10.18
2022-08-20T12:42:34.376Z,12.18
2022-08-20T12:45:01.612Z,14.60
2022-08-20T12:50:03.004Z,39.38
2022-08-20T12:52:32.252Z,39.22
2022-08-20T12:54:59.907Z,29.25
2022-08-20T12:57:36.051Z,59.25
2022-08-20T13:00:28.361Z,30.70
2022-08-20T13:02:59.205Z,19.15
2022-08-20T13:05:26.219Z,20.58
2022-08-20T13:12:23.834Z,27.13
2022-08-20T13:14:50.469Z,19.88
2022-08-20T13:17:18.810Z,18.13
2022-08-20T13:22:14.400Z,21.27
2022-08-20T13:24:42.060Z,18.42
2022-08-20T13:27:11.412Z,28.38
2022-08-20T13:29:38.384Z,26.40
2022-08-20T13:32:05.781Z,29.52
2022-08-20T13:34:32.435Z,28.77
2022-08-20T13:39:25.393Z,21.92
2022-08-20T13:44:15.305Z,26.85
2022-08-20T13:46:42.083Z,25.52
2022-08-20T13:49:08.639Z,21.25
2022-08-20T13:51:35.192Z,19.75
2022-08-20T13:54:01.896Z,18.77
2022-08-20T13:56:28.509Z,17.25
2022-08-20T13:58:55.036Z,13.57
2022-08-20T14:01:21.834Z,21.23
2022-08-20T14:03:48.381Z,14.30
2022-08-20T14:06:15.127Z,15.15
2022-08-20T14:08:41.714Z,12.70
2022-08-20T14:11:08.311Z,12.70
2022-08-20T14:13:40.444Z,18.23
2022-08-20T14:18:34.519Z,14.30
2022-08-20T14:21:01.191Z,14.43
2022-08-20T14:23:29.328Z,14.63
2022-08-20T14:28:18.080Z,14.40
2022-08-20T14:33:12.711Z,14.70
2022-08-20T14:35:40.098Z,15.75
2022-08-20T14:38:07.689Z,12.52
2022-08-20T14:40:35.536Z,14.20
2022-08-20T14:43:02.234Z,25.45
2022-08-20T14:45:28.875Z,21.67
2022-08-20T14:47:57.663Z,23.75
2022-08-20T14:50:31.567Z,17.25
2022-08-20T14:52:59.573Z,16.67
2022-08-20T14:55:29.956Z,28.65
2022-08-20T14:57:57.439Z,18.63
2022-08-20T15:00:27.967Z,21.25
2022-08-20T15:02:56.783Z,21.40
2022-08-20T15:05:23.870Z,15.45
2022-08-20T15:07:54.138Z,16.75
2022-08-20T15:12:43.058Z,19.33
2022-08-20T15:17:35.593Z,20.75
2022-08-20T15:20:20.089Z,15.60
2022-08-20T15:22:48.490Z,18.88
2022-08-20T15:25:18.304Z,16.50
2022-08-20T15:27:45.310Z,17.83
2022-08-20T15:30:15.798Z,15.70
2022-08-20T15:32:42.505Z,14.77
2022-08-20T15:35:11.267Z,19.27
2022-08-20T15:37:43.776Z,15.63
2022-08-20T15:40:13.614Z,14.85
2022-08-20T15:45:06.403Z,14.93
2022-08-20T15:47:50.829Z,21.27
2022-08-20T15:53:11.776Z,20.15
2022-08-20T15:55:44.083Z,15.10
2022-08-20T15:58:23.868Z,16.77
2022-08-20T16:01:24.555Z,15.85
2022-08-20T16:03:57.689Z,14.95
2022-08-20T16:06:30.937Z,18.65
2022-08-20T16:09:03.659Z,16.98
2022-08-20T16:11:42.955Z,18.48
2022-08-20T16:14:21.628Z,19.73
2022-08-20T16:17:05.135Z,13.27
2022-08-20T16:19:59.610Z,20.50
2022-08-20T16:22:29.912Z,15.20
2022-08-20T16:24:56.884Z,16.42
2022-08-20T16:27:53.019Z,14.43
2022-08-20T16:30:47.780Z,21.77
2022-08-20T16:33:37.278Z,18.55
2022-08-20T16:36:17.824Z,16.42
2022-08-20T16:39:02.467Z,19.98
2022-08-20T16:41:38.635Z,17.65
2022-08-20T16:44:09.880Z,20.52
2022-08-20T16:46:44.221Z,16.60
2022-08-20T16:49:13.779Z,21.73
2022-08-20T16:51:49.438Z,19.00
2022-08-20T16:54:29.275Z,20.35
2022-08-20T16:57:04.161Z,18.90
2022-08-20T16:59:32.499Z,19.45
2022-08-20T17:04:22.244Z,16.23
2022-08-20T17:06:51.532Z,15.32
2022-08-20T17:09:37.476Z,22.92
2022-08-20T17:12:14.465Z,29.83
2022-08-20T17:14:57.971Z,19.17
2022-08-20T17:17:38.153Z,20.42
2022-08-20T17:20:20.551Z,22.23
2022-08-20T17:23:14.709Z,16.33
2022-08-20T17:25:41.498Z,15.48
2022-08-20T17:28:23.072Z,16.33
2022-08-20T17:33:26.188Z,20.35
2022-08-20T17:35:59.545Z,23.92
2022-08-20T17:38:28.329Z,19.40
2022-08-20T17:41:00.647Z,16.33
2022-08-20T17:43:43.408Z,23.58
2022-08-20T17:46:16.195Z,15.85
2022-08-20T17:51:22.539Z,25.48
2022-08-20T17:53:59.991Z,16.00
2022-08-20T17:56:31.384Z,18.23
2022-08-20T17:59:10.267Z,21.30
2022-08-20T18:01:37.402Z,19.80
2022-08-20T18:04:04.136Z,20.73
2022-08-20T18:07:15.593Z,29.85
2022-08-20T18:09:52.849Z,31.67
2022-08-20T18:12:34.042Z,27.25
2022-08-20T18:15:19.299Z,23.70
2022-08-20T18:17:55.300Z,30.02
2022-08-20T18:20:44.079Z,26.27
2022-08-20T18:23:16.243Z,30.73
2022-08-20T18:26:05.459Z,25.67
2022-08-20T18:28:43.637Z,22.13
2022-08-20T18:31:24.725Z,29.08
2022-08-20T18:33:52.248Z,24.90
2022-08-20T18:36:18.739Z,26.73
2022-08-20T18:39:06.193Z,21.52
2022-08-20T18:41:40.080Z,21.95
2022-08-20T18:44:12.545Z,21.17
2022-08-20T18:46:53.456Z,18.10
2022-08-20T18:49:38.453Z,15.45
2022-08-20T18:52:14.065Z,11.27
2022-08-20T18:54:48.944Z,11.55
2022-08-20T18:57:52.432Z,11.80
2022-08-20T19:00:21.419Z,10.43
2022-08-20T19:03:17.229Z,11.02
2022-08-20T19:05:46.808Z,11.65
2022-08-20T19:08:25.308Z,9.55
2022-08-20T19:11:10.991Z,9.15
2022-08-20T19:14:00.789Z,12.27
2022-08-20T19:16:43.840Z,14.50
2022-08-20T19:19:18.693Z,10.32
2022-08-20T19:21:45.576Z,22.27
2022-08-20T19:24:29.881Z,24.33
2022-08-20T19:27:00.311Z,20.08
2022-08-20T19:29:31.224Z,18.10
2022-08-20T19:32:06.224Z,17.03
2022-08-20T19:37:09.085Z,19.40
2022-08-20T19:39:49.234Z,19.02
2022-08-20T19:42:31.367Z,23.40
2022-08-20T19:44:59.817Z,26.08
2022-08-20T19:47:44.013Z,27.80
2022-08-20T19:50:27.574Z,27.38
2022-08-20T19:53:27.482Z,24.50
2022-08-20T19:56:02.101Z,22.83
2022-08-20T19:58:30.183Z,18.05
2022-08-20T20:00:57.363Z,22.98
2022-08-20T20:03:27.233Z,29.13
2022-08-20T20:05:58.772Z,24.05
2022-08-20T20:08:41.666Z,27.42
2022-08-20T20:11:10.225Z,25.17
2022-08-20T20:13:39.631Z,30.85
2022-08-20T20:16:07.702Z,30.95
2022-08-20T20:18:39.289Z,29.02
2022-08-20T20:21:24.533Z,28.33
2022-08-20T20:23:58.261Z,32.65
2022-08-20T20:26:31.986Z,31.33
2022-08-20T20:29:05.268Z,36.58
2022-08-20T20:31:39.852Z,37.80
2022-08-20T20:34:12.969Z,41.92
2022-08-20T20:36:45.865Z,33.90
2022-08-20T20:39:29.496Z,34.45
2022-08-20T20:42:00.662Z,35.58
2022-08-20T20:44:37.289Z,36.42
2022-08-20T20:47:08.156Z,31.08
2022-08-20T20:52:29.193Z,28.02
2022-08-20T20:55:24.273Z,29.02
2022-08-20T20:57:52.146Z,28.27
2022-08-20T21:00:21.487Z,26.38
2022-08-20T21:02:48.494Z,28.23
2022-08-20T21:07:50.608Z,26.73
2022-08-20T21:10:19.967Z,31.73
2022-08-20T21:12:51.926Z,30.25
2022-08-20T21:15:21.048Z,26.65
2022-08-20T21:17:47.937Z,27.73
2022-08-20T21:20:14.847Z,34.35
2022-08-20T21:22:41.658Z,36.47
2022-08-20T21:25:08.493Z,30.67
2022-08-20T21:29:56.998Z,30.40
2022-08-20T21:32:23.892Z,34.92
2022-08-20T21:34:53.188Z,26.40
2022-08-20T21:37:19.849Z,27.17
2022-08-20T21:39:47.444Z,25.88
2022-08-20T21:42:22.229Z,26.13
2022-08-20T21:44:55.551Z,29.40
2022-08-20T21:47:22.079Z,27.88
2022-08-20T21:49:48.758Z,32.72
2022-08-20T21:52:15.457Z,27.45
2022-08-20T21:54:42.062Z,33.05
2022-08-20T21:57:14.571Z,27.23
2022-08-20T21:59:42.455Z,27.92
2022-08-20T22:02:09.373Z,32.30
2022-08-20T22:04:36.007Z,26.60
2022-08-20T22:07:03.518Z,26.23
2022-08-20T22:09:32.773Z,36.30
2022-08-20T22:12:02.904Z,38.30
2022-08-20T22:14:30.345Z,39.70
2022-08-20T22:16:57.051Z,37.97
2022-08-20T22:19:23.947Z,44.78
2022-08-20T22:21:53.060Z,45.05
2022-08-20T22:26:36.944Z,43.90
2022-08-20T22:29:05.339Z,44.10
2022-08-20T22:31:34.354Z,45.50
2022-08-20T22:34:01.315Z,35.90
2022-08-20T22:36:28.279Z,36.65
2022-08-20T22:38:55.680Z,47.50
2022-08-20T22:41:23.121Z,40.60
2022-08-20T22:43:56.698Z,36.15
2022-08-20T22:46:30.262Z,34.80
2022-08-20T22:48:57.140Z,32.38
2022-08-20T22:51:28.819Z,35.22
2022-08-20T22:53:57.181Z,29.88
2022-08-20T22:56:23.787Z,25.90
2022-08-20T22:58:51.048Z,35.97
2022-08-20T23:01:19.131Z,37.10
2022-08-20T23:03:46.368Z,34.38
2022-08-20T23:06:13.569Z,34.50
2022-08-20T23:08:41.974Z,41.35
2022-08-20T23:11:09.241Z,39.35
2022-08-20T23:13:36.019Z,38.72
2022-08-20T23:16:03.516Z,37.83
2022-08-20T23:18:32.769Z,38.83
2022-08-20T23:23:26.755Z,36.47
2022-08-20T23:25:54.591Z,39.92
2022-08-20T23:28:23.996Z,38.38
2022-08-20T23:30:51.469Z,41.20
2022-08-20T23:33:18.453Z,33.85
2022-08-20T23:35:46.147Z,37.75
2022-08-20T23:38:13.640Z,30.83
2022-08-20T23:40:41.212Z,30.70
2022-08-20T23:43:08.628Z,37.90
2022-08-20T23:45:39.765Z,34.72
2022-08-20T23:48:07.807Z,31.42
2022-08-20T23:50:34.688Z,31.75
2022-08-20T23:53:01.411Z,31.50
2022-08-20T23:55:28.002Z,43.97
2022-08-20T23:57:54.796Z,38.42
